sensor_id;sensor_type;location;lat;lon;timestamp;pressure;altitude;pressure_sealevel;temperature;humidity
39739;BME280;25422;48.286;8.484;2023-07-09T00:01:48;94571.44;;;15.20;100.00
39739;BME280;25422;48.286;8.484;2023-07-09T00:04:14;94564.47;;;15.12;100.00
39739;BME280;25422;48.286;8.484;2023-07-09T00:06:40;94575.00;;;15.12;100.00
39739;BME280;25422;48.286;8.484;2023-07-09T00:09:11;94578.22;;;15.07;100.00
39739;BME280;25422;48.286;8.484;2023-07-09T00:11:37;94572.31;;;15.05;100.00
39739;BME280;25422;48.286;8.484;2023-07-09T00:14:05;94578.84;;;15.09;100.00
39739;BME280;25422;48.286;8.484;2023-07-09T00:16:31;94581.28;;;15.11;100.00
39739;BME280;25422;48.286;8.484;2023-07-09T00:18:56;94583.50;;;15.07;100.00
39739;BME280;25422;48.286;8.484;2023-07-09T00:21:22;94582.97;;;14.97;100.00
39739;BME280;25422;48.286;8.484;2023-07-09T00:23:47;94581.81;;;14.84;100.00
39739;BME280;25422;48.286;8.484;2023-07-09T00:26:16;94579.31;;;14.76;100.00
39739;BME280;25422;48.286;8.484;2023-07-09T00:28:43;94571.13;;;14.71;100.00
39739;BME280;25422;48.286;8.484;2023-07-09T00:31:13;94575.78;;;14.69;100.00
39739;BME280;25422;48.286;8.484;2023-07-09T00:33:41;94572.31;;;14.69;100.00
39739;BME280;25422;48.286;8.484;2023-07-09T00:36:18;94573.69;;;14.64;100.00
39739;BME280;25422;48.286;8.484;2023-07-09T00:38:45;94578.31;;;14.62;100.00
39739;BME280;25422;48.286;8.484;2023-07-09T00:41:18;94575.84;;;14.61;100.00
39739;BME280;25422;48.286;8.484;2023-07-09T00:43:45;94581.22;;;14.67;100.00
39739;BME280;25422;48.286;8.484;2023-07-09T00:48:47;94578.84;;;14.73;100.00
39739;BME280;25422;48.286;8.484;2023-07-09T00:51:18;94581.66;;;14.71;100.00
39739;BME280;25422;48.286;8.484;2023-07-09T00:53:46;94573.78;;;14.71;100.00
39739;BME280;25422;48.286;8.484;2023-07-09T00:56:25;94574.16;;;14.68;100.00
39739;BME280;25422;48.286;8.484;2023-07-09T00:58:53;94571.91;;;14.65;100.00
39739;BME280;25422;48.286;8.484;2023-07-09T01:01:20;94568.88;;;14.53;100.00
39739;BME280;25422;48.286;8.484;2023-07-09T01:03:50;94574.34;;;14.52;100.00
39739;BME280;25422;48.286;8.484;2023-07-09T01:06:21;94575.94;;;14.53;100.00
39739;BME280;25422;48.286;8.484;2023-07-09T01:08:50;94573.16;;;14.54;100.00
39739;BME280;25422;48.286;8.484;2023-07-09T01:11:21;94571.78;;;14.58;100.00
39739;BME280;25422;48.286;8.484;2023-07-09T01:13:56;94580.28;;;14.60;100.00
39739;BME280;25422;48.286;8.484;2023-07-09T01:16:24;94577.41;;;14.55;100.00
39739;BME280;25422;48.286;8.484;2023-07-09T01:18:51;94578.41;;;14.54;100.00
39739;BME280;25422;48.286;8.484;2023-07-09T01:21:17;94578.50;;;14.46;100.00
39739;BME280;25422;48.286;8.484;2023-07-09T01:23:46;94574.78;;;14.40;100.00
39739;BME280;25422;48.286;8.484;2023-07-09T01:26:18;94583.25;;;14.21;100.00
39739;BME280;25422;48.286;8.484;2023-07-09T01:28:46;94579.88;;;13.97;100.00
39739;BME280;25422;48.286;8.484;2023-07-09T01:31:14;94587.75;;;13.82;100.00
39739;BME280;25422;48.286;8.484;2023-07-09T01:33:41;94583.31;;;13.82;100.00
39739;BME280;25422;48.286;8.484;2023-07-09T01:36:12;94577.31;;;13.89;100.00
39739;BME280;25422;48.286;8.484;2023-07-09T01:38:39;94579.66;;;13.69;100.00
39739;BME280;25422;48.286;8.484;2023-07-09T01:41:05;94574.31;;;13.39;100.00
39739;BME280;25422;48.286;8.484;2023-07-09T01:43:31;94578.16;;;13.28;100.00
39739;BME280;25422;48.286;8.484;2023-07-09T01:45:57;94572.69;;;13.14;100.00
39739;BME280;25422;48.286;8.484;2023-07-09T01:48:24;94579.88;;;13.21;100.00
39739;BME280;25422;48.286;8.484;2023-07-09T01:50:51;94577.16;;;13.29;100.00
39739;BME280;25422;48.286;8.484;2023-07-09T01:53:19;94576.66;;;13.33;100.00
39739;BME280;25422;48.286;8.484;2023-07-09T01:55:49;94575.34;;;13.38;100.00
39739;BME280;25422;48.286;8.484;2023-07-09T01:58:15;94579.88;;;13.44;100.00
39739;BME280;25422;48.286;8.484;2023-07-09T02:00:41;94579.53;;;13.47;100.00
39739;BME280;25422;48.286;8.484;2023-07-09T02:03:07;94576.66;;;13.57;100.00
39739;BME280;25422;48.286;8.484;2023-07-09T02:05:33;94573.00;;;13.58;100.00
39739;BME280;25422;48.286;8.484;2023-07-09T02:07:59;94568.41;;;13.60;100.00
39739;BME280;25422;48.286;8.484;2023-07-09T02:10:24;94569.94;;;13.54;100.00
39739;BME280;25422;48.286;8.484;2023-07-09T02:12:50;94574.84;;;13.57;100.00
39739;BME280;25422;48.286;8.484;2023-07-09T02:15:16;94580.28;;;13.56;100.00
39739;BME280;25422;48.286;8.484;2023-07-09T02:17:42;94576.84;;;13.55;100.00
39739;BME280;25422;48.286;8.484;2023-07-09T02:20:09;94571.72;;;13.54;100.00
39739;BME280;25422;48.286;8.484;2023-07-09T02:22:36;94578.13;;;13.59;100.00
39739;BME280;25422;48.286;8.484;2023-07-09T02:25:02;94576.09;;;13.61;100.00
39739;BME280;25422;48.286;8.484;2023-07-09T02:27:28;94573.31;;;13.63;100.00
39739;BME280;25422;48.286;8.484;2023-07-09T02:29:55;94579.28;;;13.57;100.00
39739;BME280;25422;48.286;8.484;2023-07-09T02:32:24;94577.91;;;13.46;100.00
39739;BME280;25422;48.286;8.484;2023-07-09T02:34:51;94583.53;;;13.35;100.00
39739;BME280;25422;48.286;8.484;2023-07-09T02:37:28;94582.50;;;13.21;100.00
39739;BME280;25422;48.286;8.484;2023-07-09T02:39:54;94581.25;;;13.08;100.00
39739;BME280;25422;48.286;8.484;2023-07-09T02:42:21;94585.59;;;13.01;100.00
39739;BME280;25422;48.286;8.484;2023-07-09T02:44:48;94580.66;;;12.98;100.00
39739;BME280;25422;48.286;8.484;2023-07-09T02:47:14;94585.28;;;12.96;100.00
39739;BME280;25422;48.286;8.484;2023-07-09T02:49:40;94591.81;;;13.00;100.00
39739;BME280;25422;48.286;8.484;2023-07-09T02:52:05;94588.66;;;13.05;100.00
39739;BME280;25422;48.286;8.484;2023-07-09T02:54:32;94593.13;;;13.04;100.00
39739;BME280;25422;48.286;8.484;2023-07-09T02:56:58;94598.25;;;12.97;100.00
39739;BME280;25422;48.286;8.484;2023-07-09T02:59:24;94596.44;;;12.98;100.00
39739;BME280;25422;48.286;8.484;2023-07-09T03:01:51;94598.44;;;12.96;100.00
39739;BME280;25422;48.286;8.484;2023-07-09T03:04:16;94598.13;;;12.91;100.00
39739;BME280;25422;48.286;8.484;2023-07-09T03:06:42;94603.00;;;12.94;100.00
39739;BME280;25422;48.286;8.484;2023-07-09T03:09:07;94603.50;;;12.97;100.00
39739;BME280;25422;48.286;8.484;2023-07-09T03:11:34;94601.66;;;13.06;100.00
39739;BME280;25422;48.286;8.484;2023-07-09T03:14:00;94599.94;;;13.13;100.00
39739;BME280;25422;48.286;8.484;2023-07-09T03:16:27;94599.41;;;13.18;100.00
39739;BME280;25422;48.286;8.484;2023-07-09T03:18:53;94609.59;;;13.21;100.00
39739;BME280;25422;48.286;8.484;2023-07-09T03:21:20;94603.16;;;13.24;100.00
39739;BME280;25422;48.286;8.484;2023-07-09T03:23:46;94609.94;;;13.18;100.00
39739;BME280;25422;48.286;8.484;2023-07-09T03:26:11;94598.13;;;13.14;100.00
39739;BME280;25422;48.286;8.484;2023-07-09T03:28:37;94603.44;;;13.06;100.00
39739;BME280;25422;48.286;8.484;2023-07-09T03:31:02;94607.63;;;12.92;100.00
39739;BME280;25422;48.286;8.484;2023-07-09T03:33:27;94610.31;;;12.84;100.00
39739;BME280;25422;48.286;8.484;2023-07-09T03:35:53;94613.25;;;12.89;100.00
39739;BME280;25422;48.286;8.484;2023-07-09T03:38:19;94609.28;;;12.93;100.00
39739;BME280;25422;48.286;8.484;2023-07-09T03:40:45;94612.53;;;12.95;100.00
39739;BME280;25422;48.286;8.484;2023-07-09T03:43:10;94609.97;;;12.87;100.00
39739;BME280;25422;48.286;8.484;2023-07-09T03:45:37;94618.19;;;12.84;100.00
39739;BME280;25422;48.286;8.484;2023-07-09T03:48:04;94612.63;;;12.78;100.00
39739;BME280;25422;48.286;8.484;2023-07-09T03:50:30;94610.66;;;12.80;100.00
39739;BME280;25422;48.286;8.484;2023-07-09T03:52:55;94614.41;;;12.86;100.00
39739;BME280;25422;48.286;8.484;2023-07-09T03:55:21;94610.41;;;12.98;100.00
39739;BME280;25422;48.286;8.484;2023-07-09T03:57:46;94619.03;;;13.07;100.00
39739;BME280;25422;48.286;8.484;2023-07-09T04:00:12;94622.00;;;13.04;100.00
39739;BME280;25422;48.286;8.484;2023-07-09T04:02:41;94617.41;;;13.06;100.00
39739;BME280;25422;48.286;8.484;2023-07-09T04:05:09;94619.88;;;13.08;100.00
39739;BME280;25422;48.286;8.484;2023-07-09T04:07:35;94624.16;;;13.24;100.00
39739;BME280;25422;48.286;8.484;2023-07-09T04:10:01;94617.25;;;13.31;100.00
39739;BME280;25422;48.286;8.484;2023-07-09T04:12:26;94620.81;;;13.38;100.00
39739;BME280;25422;48.286;8.484;2023-07-09T04:14:51;94617.84;;;13.41;100.00
39739;BME280;25422;48.286;8.484;2023-07-09T04:17:17;94620.25;;;13.51;100.00
39739;BME280;25422;48.286;8.484;2023-07-09T04:19:42;94620.97;;;13.60;100.00
39739;BME280;25422;48.286;8.484;2023-07-09T04:22:10;94624.19;;;13.70;100.00
39739;BME280;25422;48.286;8.484;2023-07-09T04:24:35;94630.06;;;13.72;100.00
39739;BME280;25422;48.286;8.484;2023-07-09T04:27:01;94635.09;;;13.82;100.00
39739;BME280;25422;48.286;8.484;2023-07-09T04:29:31;94625.41;;;13.82;100.00
39739;BME280;25422;48.286;8.484;2023-07-09T04:32:21;94626.66;;;13.72;100.00
39739;BME280;25422;48.286;8.484;2023-07-09T04:34:47;94630.06;;;13.72;100.00
39739;BME280;25422;48.286;8.484;2023-07-09T04:37:12;94629.41;;;13.93;100.00
39739;BME280;25422;48.286;8.484;2023-07-09T04:39:39;94633.94;;;14.14;100.00
39739;BME280;25422;48.286;8.484;2023-07-09T04:42:06;94632.88;;;14.39;100.00
39739;BME280;25422;48.286;8.484;2023-07-09T04:44:33;94627.34;;;14.63;100.00
39739;BME280;25422;48.286;8.484;2023-07-09T04:46:58;94629.06;;;14.86;100.00
39739;BME280;25422;48.286;8.484;2023-07-09T04:49:24;94620.81;;;15.11;100.00
39739;BME280;25422;48.286;8.484;2023-07-09T04:51:49;94627.47;;;15.28;100.00
39739;BME280;25422;48.286;8.484;2023-07-09T04:54:14;94615.63;;;15.39;100.00
39739;BME280;25422;48.286;8.484;2023-07-09T04:56:41;94624.38;;;15.68;100.00
39739;BME280;25422;48.286;8.484;2023-07-09T04:59:09;94620.56;;;15.92;100.00
39739;BME280;25422;48.286;8.484;2023-07-09T05:01:34;94617.34;;;16.25;100.00
39739;BME280;25422;48.286;8.484;2023-07-09T05:04:00;94617.66;;;16.50;100.00
39739;BME280;25422;48.286;8.484;2023-07-09T05:06:25;94614.94;;;16.72;100.00
39739;BME280;25422;48.286;8.484;2023-07-09T05:08:50;94619.16;;;17.01;100.00
39739;BME280;25422;48.286;8.484;2023-07-09T05:11:16;94618.19;;;17.36;100.00
39739;BME280;25422;48.286;8.484;2023-07-09T05:13:41;94616.41;;;17.63;100.00
39739;BME280;25422;48.286;8.484;2023-07-09T05:16:07;94614.38;;;18.19;100.00
39739;BME280;25422;48.286;8.484;2023-07-09T05:18:32;94620.94;;;18.16;100.00
39739;BME280;25422;48.286;8.484;2023-07-09T05:20:57;94617.41;;;18.49;100.00
39739;BME280;25422;48.286;8.484;2023-07-09T05:23:24;94623.63;;;18.82;100.00
39739;BME280;25422;48.286;8.484;2023-07-09T05:25:59;94621.56;;;18.91;100.00
39739;BME280;25422;48.286;8.484;2023-07-09T05:28:24;94620.50;;;19.37;100.00
39739;BME280;25422;48.286;8.484;2023-07-09T05:30:50;94620.19;;;19.91;100.00
39739;BME280;25422;48.286;8.484;2023-07-09T05:33:17;94624.66;;;20.59;100.00
39739;BME280;25422;48.286;8.484;2023-07-09T05:35:44;94624.06;;;21.43;100.00
39739;BME280;25422;48.286;8.484;2023-07-09T05:38:09;94626.81;;;22.45;100.00
39739;BME280;25422;48.286;8.484;2023-07-09T05:40:35;94620.38;;;23.46;88.95
39739;BME280;25422;48.286;8.484;2023-07-09T05:43:00;94623.53;;;23.60;82.59
39739;BME280;25422;48.286;8.484;2023-07-09T05:45:25;94621.97;;;24.44;76.73
39739;BME280;25422;48.286;8.484;2023-07-09T05:47:51;94623.81;;;24.77;70.15
39739;BME280;25422;48.286;8.484;2023-07-09T05:50:16;94625.09;;;24.74;68.80
39739;BME280;25422;48.286;8.484;2023-07-09T05:52:42;94620.81;;;25.40;63.85
39739;BME280;25422;48.286;8.484;2023-07-09T05:55:07;94617.72;;;26.46;57.72
39739;BME280;25422;48.286;8.484;2023-07-09T05:57:32;94621.94;;;26.74;54.19
39739;BME280;25422;48.286;8.484;2023-07-09T05:59:58;94615.72;;;27.26;52.62
39739;BME280;25422;48.286;8.484;2023-07-09T06:02:23;94624.16;;;26.87;53.50
39739;BME280;25422;48.286;8.484;2023-07-09T06:04:49;94614.53;;;27.96;49.99
39739;BME280;25422;48.286;8.484;2023-07-09T06:07:15;94623.41;;;27.81;51.30
39739;BME280;25422;48.286;8.484;2023-07-09T06:09:40;94625.06;;;28.13;49.38
39739;BME280;25422;48.286;8.484;2023-07-09T06:12:06;94613.50;;;28.13;46.82
39739;BME280;25422;48.286;8.484;2023-07-09T06:14:33;94621.78;;;28.78;46.92
39739;BME280;25422;48.286;8.484;2023-07-09T06:16:59;94620.59;;;29.65;44.82
39739;BME280;25422;48.286;8.484;2023-07-09T06:19:25;94618.34;;;29.88;41.32
39739;BME280;25422;48.286;8.484;2023-07-09T06:21:51;94616.94;;;29.51;41.77
39739;BME280;25422;48.286;8.484;2023-07-09T06:24:16;94626.09;;;30.00;41.06
39739;BME280;25422;48.286;8.484;2023-07-09T06:26:42;94623.38;;;29.55;41.31
39739;BME280;25422;48.286;8.484;2023-07-09T06:29:07;94619.53;;;30.06;40.95
39739;BME280;25422;48.286;8.484;2023-07-09T06:31:33;94624.75;;;30.90;39.50
39739;BME280;25422;48.286;8.484;2023-07-09T06:33:58;94620.66;;;30.69;39.40
39739;BME280;25422;48.286;8.484;2023-07-09T06:36:23;94623.34;;;30.69;39.51
39739;BME280;25422;48.286;8.484;2023-07-09T06:38:49;94623.06;;;30.70;39.17
39739;BME280;25422;48.286;8.484;2023-07-09T06:41:15;94623.34;;;30.69;39.09
39739;BME280;25422;48.286;8.484;2023-07-09T06:43:42;94624.63;;;31.01;38.32
39739;BME280;25422;48.286;8.484;2023-07-09T06:46:11;94621.69;;;30.97;37.85
39739;BME280;25422;48.286;8.484;2023-07-09T06:48:37;94617.56;;;31.29;37.70
39739;BME280;25422;48.286;8.484;2023-07-09T06:51:02;94623.16;;;31.95;36.47
39739;BME280;25422;48.286;8.484;2023-07-09T06:53:28;94622.78;;;32.54;36.24
39739;BME280;25422;48.286;8.484;2023-07-09T06:55:54;94614.94;;;33.13;35.16
39739;BME280;25422;48.286;8.484;2023-07-09T06:58:23;94620.44;;;33.50;33.92
39739;BME280;25422;48.286;8.484;2023-07-09T07:00:51;94624.56;;;33.05;34.31
39739;BME280;25422;48.286;8.484;2023-07-09T07:03:17;94623.25;;;32.89;33.66
39739;BME280;25422;48.286;8.484;2023-07-09T07:05:47;94634.78;;;32.81;32.15
39739;BME280;25422;48.286;8.484;2023-07-09T07:08:15;94620.53;;;32.42;34.22
39739;BME280;25422;48.286;8.484;2023-07-09T07:10:42;94628.16;;;32.73;34.11
39739;BME280;25422;48.286;8.484;2023-07-09T07:13:08;94628.53;;;32.80;33.63
39739;BME280;25422;48.286;8.484;2023-07-09T07:15:36;94622.34;;;32.80;33.50
39739;BME280;25422;48.286;8.484;2023-07-09T07:18:01;94621.91;;;32.06;34.61
39739;BME280;25422;48.286;8.484;2023-07-09T07:20:27;94621.31;;;31.90;34.58
39739;BME280;25422;48.286;8.484;2023-07-09T07:22:52;94616.50;;;32.06;34.65
39739;BME280;25422;48.286;8.484;2023-07-09T07:25:17;94609.44;;;31.72;35.64
39739;BME280;25422;48.286;8.484;2023-07-09T07:27:43;94616.66;;;31.96;35.15
39739;BME280;25422;48.286;8.484;2023-07-09T07:30:09;94616.88;;;32.66;34.75
39739;BME280;25422;48.286;8.484;2023-07-09T07:32:36;94605.22;;;32.51;34.73
39739;BME280;25422;48.286;8.484;2023-07-09T07:35:02;94622.28;;;32.19;34.48
39739;BME280;25422;48.286;8.484;2023-07-09T07:37:27;94613.44;;;31.75;35.30
39739;BME280;25422;48.286;8.484;2023-07-09T07:39:53;94609.34;;;32.16;35.18
39739;BME280;25422;48.286;8.484;2023-07-09T07:42:18;94607.44;;;32.16;33.69
39739;BME280;25422;48.286;8.484;2023-07-09T07:44:44;94606.84;;;32.66;34.33
39739;BME280;25422;48.286;8.484;2023-07-09T07:47:10;94604.09;;;32.38;34.67
39739;BME280;25422;48.286;8.484;2023-07-09T07:49:37;94604.97;;;32.94;32.99
39739;BME280;25422;48.286;8.484;2023-07-09T07:52:03;94607.56;;;33.55;32.84
39739;BME280;25422;48.286;8.484;2023-07-09T07:54:29;94604.34;;;33.53;31.38
39739;BME280;25422;48.286;8.484;2023-07-09T07:56:55;94607.69;;;33.36;31.78
39739;BME280;25422;48.286;8.484;2023-07-09T07:59:20;94613.94;;;33.09;31.87
39739;BME280;25422;48.286;8.484;2023-07-09T08:01:46;94614.00;;;33.18;32.25
39739;BME280;25422;48.286;8.484;2023-07-09T08:04:11;94614.16;;;32.66;32.61
39739;BME280;25422;48.286;8.484;2023-07-09T08:06:36;94621.44;;;32.37;33.03
39739;BME280;25422;48.286;8.484;2023-07-09T08:09:02;94608.38;;;33.00;32.04
39739;BME280;25422;48.286;8.484;2023-07-09T08:11:27;94612.50;;;32.98;32.07
39739;BME280;25422;48.286;8.484;2023-07-09T08:13:55;94615.59;;;32.77;33.45
39739;BME280;25422;48.286;8.484;2023-07-09T08:16:20;94611.00;;;33.47;32.21
39739;BME280;25422;48.286;8.484;2023-07-09T08:18:46;94610.47;;;34.18;32.10
39739;BME280;25422;48.286;8.484;2023-07-09T08:21:11;94616.03;;;33.40;32.24
39739;BME280;25422;48.286;8.484;2023-07-09T08:23:37;94617.75;;;33.72;31.74
39739;BME280;25422;48.286;8.484;2023-07-09T08:26:03;94611.22;;;33.87;31.39
39739;BME280;25422;48.286;8.484;2023-07-09T08:28:30;94604.69;;;33.88;30.79
39739;BME280;25422;48.286;8.484;2023-07-09T08:30:56;94606.72;;;33.83;30.04
39739;BME280;25422;48.286;8.484;2023-07-09T08:33:23;94610.72;;;33.85;31.11
39739;BME280;25422;48.286;8.484;2023-07-09T08:35:49;94613.94;;;33.73;30.50
39739;BME280;25422;48.286;8.484;2023-07-09T08:38:15;94617.19;;;33.61;30.78
39739;BME280;25422;48.286;8.484;2023-07-09T08:40:42;94609.88;;;33.62;31.14
39739;BME280;25422;48.286;8.484;2023-07-09T08:43:26;94618.91;;;33.94;29.84
39739;BME280;25422;48.286;8.484;2023-07-09T08:46:13;94613.94;;;33.73;30.31
39739;BME280;25422;48.286;8.484;2023-07-09T08:48:43;94608.72;;;34.36;30.52
39739;BME280;25422;48.286;8.484;2023-07-09T08:51:27;94616.16;;;34.53;29.38
39739;BME280;25422;48.286;8.484;2023-07-09T08:53:57;94626.81;;;34.72;27.87
39739;BME280;25422;48.286;8.484;2023-07-09T08:56:24;94626.34;;;35.02;29.04
39739;BME280;25422;48.286;8.484;2023-07-09T08:58:50;94624.34;;;33.94;29.78
39739;BME280;25422;48.286;8.484;2023-07-09T09:01:20;94621.41;;;34.04;29.09
39739;BME280;25422;48.286;8.484;2023-07-09T09:03:58;94626.34;;;35.10;27.39
39739;BME280;25422;48.286;8.484;2023-07-09T09:06:30;94631.59;;;35.47;27.82
39739;BME280;25422;48.286;8.484;2023-07-09T09:09:12;94624.47;;;35.20;27.72
39739;BME280;25422;48.286;8.484;2023-07-09T09:11:47;94625.59;;;35.94;27.22
39739;BME280;25422;48.286;8.484;2023-07-09T09:14:27;94623.50;;;36.26;25.95
39739;BME280;25422;48.286;8.484;2023-07-09T09:16:56;94616.84;;;36.71;26.37
39739;BME280;25422;48.286;8.484;2023-07-09T09:19:31;94625.91;;;36.54;25.55
39739;BME280;25422;48.286;8.484;2023-07-09T09:22:07;94622.31;;;37.18;23.88
39739;BME280;25422;48.286;8.484;2023-07-09T09:24:41;94619.31;;;36.46;24.25
39739;BME280;25422;48.286;8.484;2023-07-09T09:27:08;94621.25;;;36.37;24.76
39739;BME280;25422;48.286;8.484;2023-07-09T09:29:34;94619.69;;;36.36;24.86
39739;BME280;25422;48.286;8.484;2023-07-09T09:32:11;94619.94;;;35.73;24.33
39739;BME280;25422;48.286;8.484;2023-07-09T09:34:42;94608.88;;;35.43;24.43
39739;BME280;25422;48.286;8.484;2023-07-09T09:37:11;94611.97;;;35.76;25.89
39739;BME280;25422;48.286;8.484;2023-07-09T09:39:38;94595.34;;;35.95;26.06
39739;BME280;25422;48.286;8.484;2023-07-09T09:42:10;94603.94;;;36.50;24.90
39739;BME280;25422;48.286;8.484;2023-07-09T09:44:36;94591.56;;;36.61;24.71
39739;BME280;25422;48.286;8.484;2023-07-09T09:47:01;94593.56;;;36.35;23.98
39739;BME280;25422;48.286;8.484;2023-07-09T09:49:27;94595.94;;;36.27;24.45
39739;BME280;25422;48.286;8.484;2023-07-09T09:51:53;94593.22;;;36.19;24.52
39739;BME280;25422;48.286;8.484;2023-07-09T09:54:26;94590.75;;;36.70;24.77
39739;BME280;25422;48.286;8.484;2023-07-09T09:56:53;94600.47;;;36.06;23.66
39739;BME280;25422;48.286;8.484;2023-07-09T09:59:31;94599.31;;;36.42;23.18
39739;BME280;25422;48.286;8.484;2023-07-09T10:01:59;94598.56;;;35.31;25.64
39739;BME280;25422;48.286;8.484;2023-07-09T10:04:25;94602.66;;;34.71;25.49
39739;BME280;25422;48.286;8.484;2023-07-09T10:06:53;94609.06;;;34.98;26.28
39739;BME280;25422;48.286;8.484;2023-07-09T10:09:27;94599.50;;;36.02;25.95
39739;BME280;25422;48.286;8.484;2023-07-09T10:15:01;94587.94;;;36.22;25.85
39739;BME280;25422;48.286;8.484;2023-07-09T10:17:37;94593.88;;;36.33;25.40
39739;BME280;25422;48.286;8.484;2023-07-09T10:20:21;94585.63;;;36.59;24.96
39739;BME280;25422;48.286;8.484;2023-07-09T10:23:10;94593.75;;;36.77;25.14
39739;BME280;25422;48.286;8.484;2023-07-09T10:25:46;94593.78;;;35.28;24.74
39739;BME280;25422;48.286;8.484;2023-07-09T10:33:53;94587.56;;;35.36;25.65
39739;BME280;25422;48.286;8.484;2023-07-09T10:36:41;94593.38;;;35.70;24.07
39739;BME280;25422;48.286;8.484;2023-07-09T10:39:12;94587.25;;;34.89;25.84
39739;BME280;25422;48.286;8.484;2023-07-09T10:41:40;94586.38;;;34.71;26.55
39739;BME280;25422;48.286;8.484;2023-07-09T10:44:46;94588.00;;;34.40;26.41
39739;BME280;25422;48.286;8.484;2023-07-09T10:47:24;94581.47;;;35.31;25.78
39739;BME280;25422;48.286;8.484;2023-07-09T10:49:51;94581.84;;;35.55;25.53
39739;BME280;25422;48.286;8.484;2023-07-09T10:52:33;94577.53;;;35.72;24.96
39739;BME280;25422;48.286;8.484;2023-07-09T10:55:18;94584.97;;;35.14;24.93
39739;BME280;25422;48.286;8.484;2023-07-09T10:58:00;94577.34;;;35.33;25.00
39739;BME280;25422;48.286;8.484;2023-07-09T11:00:35;94581.53;;;35.48;24.03
39739;BME280;25422;48.286;8.484;2023-07-09T11:03:15;94566.03;;;36.01;22.97
39739;BME280;25422;48.286;8.484;2023-07-09T11:05:41;94568.09;;;36.04;23.67
39739;BME280;25422;48.286;8.484;2023-07-09T11:08:12;94564.44;;;35.91;23.97
39739;BME280;25422;48.286;8.484;2023-07-09T11:10:54;94577.28;;;37.12;22.68
39739;BME280;25422;48.286;8.484;2023-07-09T11:15:50;94579.34;;;36.76;23.17
39739;BME280;25422;48.286;8.484;2023-07-09T11:18:24;94562.31;;;36.88;22.98
39739;BME280;25422;48.286;8.484;2023-07-09T11:21:04;94569.22;;;36.77;22.91
39739;BME280;25422;48.286;8.484;2023-07-09T11:23:46;94562.94;;;36.20;23.41
39739;BME280;25422;48.286;8.484;2023-07-09T11:28:53;94556.53;;;36.34;23.45
39739;BME280;25422;48.286;8.484;2023-07-09T11:31:35;94567.66;;;37.87;23.09
39739;BME280;25422;48.286;8.484;2023-07-09T11:34:08;94560.53;;;37.94;21.61
39739;BME280;25422;48.286;8.484;2023-07-09T11:36:35;94560.66;;;37.35;23.52
39739;BME280;25422;48.286;8.484;2023-07-09T11:39:31;94554.88;;;36.50;24.08
39739;BME280;25422;48.286;8.484;2023-07-09T11:42:47;94557.00;;;36.44;23.66
39739;BME280;25422;48.286;8.484;2023-07-09T11:45:15;94557.94;;;37.26;22.57
39739;BME280;25422;48.286;8.484;2023-07-09T11:48:05;94562.44;;;37.52;21.92
39739;BME280;25422;48.286;8.484;2023-07-09T11:50:34;94554.94;;;37.49;21.23
39739;BME280;25422;48.286;8.484;2023-07-09T11:56:11;94552.47;;;38.32;21.34
39739;BME280;25422;48.286;8.484;2023-07-09T11:58:54;94550.38;;;38.16;21.23
39739;BME280;25422;48.286;8.484;2023-07-09T12:01:42;94557.03;;;38.27;21.05
39739;BME280;25422;48.286;8.484;2023-07-09T12:04:16;94558.91;;;37.72;21.47
39739;BME280;25422;48.286;8.484;2023-07-09T12:06:45;94553.09;;;38.62;20.97
39739;BME280;25422;48.286;8.484;2023-07-09T12:09:18;94545.56;;;38.13;20.15
39739;BME280;25422;48.286;8.484;2023-07-09T12:11:48;94548.41;;;37.83;20.40
39739;BME280;25422;48.286;8.484;2023-07-09T12:14:21;94548.78;;;37.94;19.58
39739;BME280;25422;48.286;8.484;2023-07-09T12:16:57;94556.13;;;37.09;20.80
39739;BME280;25422;48.286;8.484;2023-07-09T12:19:29;94541.03;;;36.64;20.89
39739;BME280;25422;48.286;8.484;2023-07-09T12:21:58;94543.59;;;37.59;19.82
39739;BME280;25422;48.286;8.484;2023-07-09T12:24:31;94534.59;;;36.86;21.46
39739;BME280;25422;48.286;8.484;2023-07-09T12:27:03;94538.13;;;37.59;19.73
39739;BME280;25422;48.286;8.484;2023-07-09T12:29:44;94537.22;;;37.25;20.26
39739;BME280;25422;48.286;8.484;2023-07-09T12:32:15;94536.41;;;37.96;19.83
39739;BME280;25422;48.286;8.484;2023-07-09T12:34:41;94531.16;;;37.91;19.86
39739;BME280;25422;48.286;8.484;2023-07-09T12:37:13;94523.47;;;38.39;19.79
39739;BME280;25422;48.286;8.484;2023-07-09T12:39:42;94524.66;;;37.84;18.94
39739;BME280;25422;48.286;8.484;2023-07-09T12:42:17;94520.94;;;37.16;19.59
39739;BME280;25422;48.286;8.484;2023-07-09T12:44:45;94513.38;;;38.19;18.73
39739;BME280;25422;48.286;8.484;2023-07-09T12:47:14;94520.00;;;37.42;19.06
39739;BME280;25422;48.286;8.484;2023-07-09T12:49:44;94511.94;;;36.94;18.88
39739;BME280;25422;48.286;8.484;2023-07-09T12:52:18;94510.22;;;37.95;18.01
39739;BME280;25422;48.286;8.484;2023-07-09T12:54:54;94503.84;;;37.91;17.57
39739;BME280;25422;48.286;8.484;2023-07-09T12:57:23;94507.22;;;38.09;16.42
39739;BME280;25422;48.286;8.484;2023-07-09T12:59:51;94511.53;;;38.56;15.89
39739;BME280;25422;48.286;8.484;2023-07-09T13:02:25;94502.47;;;37.85;15.61
39739;BME280;25422;48.286;8.484;2023-07-09T13:05:20;94498.44;;;36.59;16.82
39739;BME280;25422;48.286;8.484;2023-07-09T13:08:39;94503.13;;;37.82;17.05
39739;BME280;25422;48.286;8.484;2023-07-09T13:10:41;94494.09;;;37.48;16.96
39739;BME280;25422;48.286;8.484;2023-07-09T13:13:12;94501.09;;;37.37;17.32
39739;BME280;25422;48.286;8.484;2023-07-09T13:15:41;94493.38;;;37.81;16.48
39739;BME280;25422;48.286;8.484;2023-07-09T13:18:10;94490.31;;;37.40;17.71
39739;BME280;25422;48.286;8.484;2023-07-09T13:20:41;94486.25;;;36.95;17.99
39739;BME280;25422;48.286;8.484;2023-07-09T13:23:29;94493.53;;;36.44;18.25
39739;BME280;25422;48.286;8.484;2023-07-09T13:25:58;94487.91;;;36.88;16.15